WEB kamera na Vojskem več informacij WEB-CAM on Vojsko


Kamera v Zali več informacij Kamera v Zali



Prišlo je do težav v komunikacij. Obišči direktno Meteoalarm web-stran: www.meteoalarm.eu and check the Weather-warnings there .

Nearby METAR Reports

   
LJLJ - Idrija
Updated: 16.08.2018 04:30
Nekaj oblakov  
Nekaj oblakov  
   Veter: SW 1.9 km/h
Veter: SW 1.9 km/h
Temperatura: 12°C
Rosišče: 12°C
Vlaga: 100%
Zračni tlak: 1019 hPa
Oblaki: Nekaj oblakov
Visibility: More than 10 km
Cloud details: Nekaj oblakov 6000 ft
LJLJ 160230Z 23001KT 9999 FEW060 12/12 Q1019 NOSIG
LJPZ - Koper
Updated: 16.08.2018 04:30
Jasno  
Jasno  
   Veter: varies 5.6 km/h
Veter: varies 5.6 km/h
Temperatura: 17°C
Rosišče: 14°C
Vlaga: 83%
Zračni tlak: 1016 hPa
Oblaki: Jasno
Visibility: More than 10 km
Cloud details: Jasno
LJPZ 160230Z AUTO VRB03KT 9999 NCD 17/14 Q1016
LJLJ - Kranj
Updated: 16.08.2018 04:30
Nekaj oblakov  
Nekaj oblakov  
   Veter: SW 1.9 km/h
Veter: SW 1.9 km/h
Temperatura: 12°C
Rosišče: 12°C
Vlaga: 100%
Zračni tlak: 1019 hPa
Oblaki: Nekaj oblakov
Visibility: More than 10 km
Cloud details: Nekaj oblakov 6000 ft
LJLJ 160230Z 23001KT 9999 FEW060 12/12 Q1019 NOSIG

Script developed by  Saratoga-weather.org Adapted for the template by  Weerstation Leuven